createdAt,value
2022-08-17T00:02:26.424Z,21.15
2022-08-17T00:04:55.058Z,21.13
2022-08-17T00:07:22.615Z,21.05
2022-08-17T00:09:49.538Z,21.06
2022-08-17T00:12:41.415Z,21.12
2022-08-17T00:15:05.857Z,21.18
2022-08-17T00:17:36.116Z,21.27
2022-08-17T00:20:03.377Z,21.24
2022-08-17T00:22:34.232Z,21.19
2022-08-17T00:25:03.321Z,21.13
2022-08-17T00:27:30.206Z,21.19
2022-08-17T00:29:57.053Z,21.17
2022-08-17T00:33:13.722Z,21.12
2022-08-17T00:35:13.102Z,21.13
2022-08-17T00:37:40.421Z,21.10
2022-08-17T00:40:09.985Z,21.14
2022-08-17T00:42:37.313Z,21.15
2022-08-17T00:45:06.277Z,21.02
2022-08-17T00:47:33.388Z,21.01
2022-08-17T00:50:00.540Z,21.03
2022-08-17T00:52:34.154Z,21.03
2022-08-17T00:55:01.403Z,21.03
2022-08-17T00:57:41.690Z,21.08
2022-08-17T01:00:21.498Z,21.09
2022-08-17T01:02:48.930Z,21.03
2022-08-17T01:05:20.618Z,21.04
2022-08-17T01:07:51.101Z,21.03
2022-08-17T01:10:59.965Z,20.93
2022-08-17T01:13:10.901Z,20.91
2022-08-17T01:15:39.489Z,20.90
2022-08-17T01:18:08.076Z,20.95
2022-08-17T01:20:47.863Z,20.85
2022-08-17T01:23:20.556Z,20.86
2022-08-17T01:25:54.738Z,20.87
2022-08-17T01:28:33.592Z,20.83
2022-08-17T01:31:09.505Z,20.82
2022-08-17T01:33:36.876Z,20.79
2022-08-17T01:36:07.120Z,20.75
2022-08-17T01:38:35.958Z,20.75
2022-08-17T01:41:07.662Z,20.81
2022-08-17T01:44:02.479Z,20.72
2022-08-17T01:46:34.185Z,20.78
2022-08-17T01:49:01.697Z,20.76
2022-08-17T01:51:32.942Z,20.77
2022-08-17T01:54:08.225Z,20.80
2022-08-17T01:56:37.725Z,20.71
2022-08-17T01:59:05.019Z,20.70
2022-08-17T02:01:34.002Z,20.63
2022-08-17T02:04:01.903Z,20.63
2022-08-17T02:06:52.360Z,20.62
2022-08-17T02:09:25.805Z,20.54
2022-08-17T02:11:54.977Z,20.54
2022-08-17T02:14:24.569Z,20.55
2022-08-17T02:16:52.097Z,20.50
2022-08-17T02:19:19.299Z,20.46
2022-08-17T02:21:48.039Z,20.49
2022-08-17T02:24:58.499Z,20.45
2022-08-17T02:27:07.085Z,20.58
2022-08-17T02:29:34.036Z,20.53
2022-08-17T02:32:02.033Z,20.55
2022-08-17T02:34:29.369Z,20.53
2022-08-17T02:36:56.390Z,20.47
2022-08-17T02:39:23.295Z,20.41
2022-08-17T02:41:50.443Z,20.42
2022-08-17T02:44:39.390Z,20.44
2022-08-17T02:47:04.432Z,20.47
2022-08-17T02:49:31.656Z,20.47
2022-08-17T02:51:58.956Z,20.47
2022-08-17T02:54:40.499Z,20.41
2022-08-17T02:57:10.089Z,20.39
2022-08-17T02:59:42.382Z,20.36
2022-08-17T03:02:13.721Z,20.49
2022-08-17T03:04:40.723Z,20.43
2022-08-17T03:07:07.567Z,20.40
2022-08-17T03:09:34.482Z,20.45
2022-08-17T03:12:09.889Z,20.38
2022-08-17T03:14:41.489Z,20.37
2022-08-17T03:17:10.283Z,20.38
2022-08-17T03:19:37.701Z,20.45
2022-08-17T03:22:37.081Z,20.51
2022-08-17T03:24:57.049Z,20.41
2022-08-17T03:27:23.992Z,20.36
2022-08-17T03:29:50.829Z,20.36
2022-08-17T03:32:17.990Z,20.31
2022-08-17T03:34:44.869Z,20.32
2022-08-17T03:37:12.679Z,20.31
2022-08-17T03:39:39.822Z,20.33
2022-08-17T03:42:31.805Z,20.30
2022-08-17T03:45:00.162Z,20.31
2022-08-17T03:47:45.987Z,20.27
2022-08-17T03:50:32.629Z,20.21
2022-08-17T03:53:19.026Z,20.28
2022-08-17T03:56:04.238Z,20.18
2022-08-17T03:58:31.151Z,20.17
2022-08-17T04:00:58.023Z,20.18
2022-08-17T04:03:24.914Z,20.21
2022-08-17T04:05:51.761Z,20.18
2022-08-17T04:08:18.671Z,20.22
2022-08-17T04:10:45.589Z,20.30
2022-08-17T04:13:13.077Z,20.17
2022-08-17T04:15:40.214Z,20.18
2022-08-17T04:18:07.704Z,20.23
2022-08-17T04:20:38.066Z,20.17
2022-08-17T04:23:10.208Z,20.12
2022-08-17T04:25:40.258Z,20.15
2022-08-17T04:28:14.621Z,20.20
2022-08-17T04:30:45.403Z,20.07
2022-08-17T04:33:24.210Z,20.02
2022-08-17T04:35:57.263Z,20.00
2022-08-17T04:38:26.953Z,19.99
2022-08-17T04:41:12.448Z,19.90
2022-08-17T04:43:40.933Z,19.96
2022-08-17T04:46:10.580Z,20.06
2022-08-17T04:48:40.432Z,20.05
2022-08-17T04:51:32.493Z,19.99
2022-08-17T04:54:02.343Z,19.99
2022-08-17T04:56:30.220Z,20.02
2022-08-17T04:59:00.609Z,20.05
2022-08-17T05:01:30.055Z,19.99
2022-08-17T05:04:02.389Z,20.07
2022-08-17T05:06:49.753Z,20.00
2022-08-17T05:09:17.756Z,19.99
2022-08-17T05:11:45.461Z,19.98
2022-08-17T05:14:12.985Z,20.08
2022-08-17T05:16:39.918Z,20.06
2022-08-17T05:19:06.896Z,20.07
2022-08-17T05:21:33.830Z,20.00
2022-08-17T05:24:00.897Z,19.99
2022-08-17T05:26:32.897Z,19.98
2022-08-17T05:29:03.361Z,19.97
2022-08-17T05:31:30.969Z,20.01
2022-08-17T05:33:58.216Z,20.02
2022-08-17T05:36:42.445Z,20.01
2022-08-17T05:39:16.695Z,19.97
2022-08-17T05:41:48.234Z,19.95
2022-08-17T05:44:15.683Z,19.87
2022-08-17T05:46:46.062Z,19.98
2022-08-17T05:49:13.651Z,20.05
2022-08-17T05:51:49.152Z,20.01
2022-08-17T05:54:42.103Z,20.01
2022-08-17T05:57:39.914Z,19.99
2022-08-17T06:00:30.188Z,19.94
2022-08-17T06:03:05.366Z,20.01
2022-08-17T06:05:45.441Z,20.02
2022-08-17T06:08:22.171Z,20.09
2022-08-17T06:10:58.476Z,20.10
2022-08-17T06:14:00.858Z,20.08
2022-08-17T06:16:36.902Z,20.00
2022-08-17T06:19:20.600Z,19.98
2022-08-17T06:21:51.782Z,20.04
2022-08-17T06:24:24.700Z,20.07
2022-08-17T06:26:52.605Z,20.06
2022-08-17T06:29:23.194Z,20.10
2022-08-17T06:31:51.281Z,20.11
2022-08-17T06:34:19.597Z,20.12
2022-08-17T06:37:24.814Z,20.13
2022-08-17T06:40:00.782Z,20.12
2022-08-17T06:43:05.778Z,20.27
2022-08-17T06:45:49.639Z,20.30
2022-08-17T06:48:26.357Z,20.33
2022-08-17T06:51:00.631Z,20.42
2022-08-17T06:53:32.909Z,20.46
2022-08-17T06:56:10.148Z,20.48
2022-08-17T06:58:40.279Z,20.50
2022-08-17T07:01:23.535Z,20.51
2022-08-17T07:04:13.573Z,20.56
2022-08-17T07:06:46.439Z,20.55
2022-08-17T07:09:23.438Z,20.60
2022-08-17T07:11:54.520Z,20.64
2022-08-17T07:14:45.811Z,20.66
2022-08-17T07:17:15.964Z,20.69
2022-08-17T07:19:46.742Z,20.76
2022-08-17T07:22:30.829Z,20.79
2022-08-17T07:25:20.766Z,20.84
2022-08-17T07:27:51.513Z,20.90
2022-08-17T07:30:24.872Z,20.94
2022-08-17T07:32:58.058Z,20.97
2022-08-17T07:35:37.602Z,21.00
2022-08-17T07:38:30.573Z,21.00
2022-08-17T07:40:58.209Z,21.04
2022-08-17T07:43:40.110Z,21.08
2022-08-17T07:46:39.708Z,21.10
2022-08-17T07:49:09.329Z,21.15
2022-08-17T07:51:45.917Z,21.18
2022-08-17T07:54:14.854Z,21.25
2022-08-17T07:56:46.525Z,21.26
2022-08-17T07:59:15.154Z,21.32
2022-08-17T08:01:44.962Z,21.32
2022-08-17T08:07:26.718Z,21.38
2022-08-17T08:09:59.778Z,21.39
2022-08-17T08:12:37.286Z,21.43
2022-08-17T08:15:15.220Z,21.44
2022-08-17T08:17:54.318Z,21.45
2022-08-17T08:20:51.661Z,21.47
2022-08-17T08:23:25.819Z,21.49
2022-08-17T08:25:56.890Z,21.49
2022-08-17T08:28:46.111Z,21.55
2022-08-17T08:31:24.646Z,21.54
2022-08-17T08:34:06.750Z,21.59
2022-08-17T08:37:17.783Z,21.61
2022-08-17T08:39:52.314Z,21.63
2022-08-17T08:42:33.731Z,21.62
2022-08-17T08:45:24.389Z,21.67
2022-08-17T08:48:22.905Z,21.69
2022-08-17T08:51:14.991Z,21.73
2022-08-17T08:54:03.506Z,21.74
2022-08-17T08:57:19.777Z,21.78
2022-08-17T09:00:05.629Z,21.77
2022-08-17T09:02:47.430Z,21.82
2022-08-17T09:05:52.937Z,21.84
2022-08-17T09:08:32.489Z,21.89
2022-08-17T09:11:22.741Z,21.93
2022-08-17T09:14:07.833Z,21.93
2022-08-17T09:16:57.707Z,21.99
2022-08-17T09:20:27.867Z,22.00
2022-08-17T09:23:13.414Z,22.03
2022-08-17T09:25:50.662Z,22.02
2022-08-17T13:29:45.229Z,24.60
2022-08-17T13:32:41.273Z,24.61
2022-08-17T13:35:35.381Z,24.59
2022-08-17T13:38:17.188Z,24.62
2022-08-17T13:40:50.505Z,24.64
2022-08-17T13:43:41.260Z,24.65
2022-08-17T13:46:12.927Z,24.65
2022-08-17T13:48:40.789Z,24.59
2022-08-17T13:51:18.300Z,24.53
2022-08-17T13:53:45.871Z,24.38
2022-08-17T13:56:37.621Z,24.30
2022-08-17T13:59:09.838Z,24.21
2022-08-17T14:01:53.151Z,24.14
2022-08-17T14:04:32.350Z,23.94
2022-08-17T14:07:24.258Z,23.89
2022-08-17T14:09:58.622Z,23.85
2022-08-17T14:12:28.567Z,23.81
2022-08-17T14:14:57.238Z,23.77
2022-08-17T14:17:26.664Z,23.77
2022-08-17T14:19:54.541Z,23.75
2022-08-17T14:22:28.890Z,23.69
2022-08-17T14:24:58.462Z,23.60
2022-08-17T14:27:28.588Z,23.49
2022-08-17T14:29:58.586Z,23.40
2022-08-17T14:32:37.012Z,23.32
2022-08-17T14:35:06.032Z,23.23
2022-08-17T14:37:35.317Z,23.22
2022-08-17T14:40:07.282Z,23.05
2022-08-17T14:42:36.687Z,23.03
2022-08-17T14:45:06.404Z,22.90
2022-08-17T14:47:53.904Z,22.86
2022-08-17T14:50:23.415Z,22.78
2022-08-17T14:52:51.333Z,22.72
2022-08-17T14:55:19.569Z,22.66
2022-08-17T14:57:47.206Z,22.61
2022-08-17T15:00:17.157Z,22.51
2022-08-17T15:02:55.694Z,22.35
2022-08-17T15:05:26.059Z,22.28
2022-08-17T15:07:54.051Z,22.27
2022-08-17T15:10:22.054Z,22.24
2022-08-17T15:12:49.590Z,22.19
2022-08-17T15:15:18.703Z,22.18
2022-08-17T15:17:47.899Z,22.25
2022-08-17T17:09:01.445Z,22.12
2022-08-17T17:11:51.100Z,22.12
2022-08-17T17:14:28.439Z,22.12
2022-08-17T17:17:04.156Z,22.10
2022-08-17T17:19:52.419Z,22.07
2022-08-17T17:22:30.207Z,22.05
2022-08-17T17:25:48.808Z,22.02
2022-08-17T17:29:00.961Z,22.02
2022-08-17T17:34:16.888Z,22.00
2022-08-17T17:36:49.012Z,22.06
2022-08-17T17:39:20.630Z,22.07
2022-08-17T17:41:49.814Z,22.15
2022-08-17T17:44:21.123Z,22.11
2022-08-17T17:46:55.979Z,22.06
2022-08-17T17:49:23.915Z,22.10
2022-08-17T17:52:10.854Z,22.10
2022-08-17T17:55:18.083Z,22.10
2022-08-17T17:57:59.485Z,22.11
2022-08-17T18:00:38.520Z,22.02
2022-08-17T18:03:17.213Z,22.03
2022-08-17T18:06:10.328Z,22.02
2022-08-17T18:08:59.164Z,21.98
2022-08-17T18:11:52.613Z,21.94
2022-08-17T18:14:46.274Z,21.90
2022-08-17T18:17:14.725Z,21.87
2022-08-17T18:19:41.696Z,21.86
2022-08-17T18:22:18.513Z,21.83
2022-08-17T18:24:48.351Z,21.87
2022-08-17T18:27:29.640Z,21.88
2022-08-17T18:29:58.353Z,21.89
2022-08-17T18:32:28.689Z,21.89
2022-08-17T18:35:02.492Z,21.87
2022-08-17T18:37:36.820Z,21.86
2022-08-17T18:40:19.628Z,21.87
2022-08-17T18:43:06.521Z,21.84
2022-08-17T18:45:47.648Z,21.84
2022-08-17T18:48:30.168Z,21.81
2022-08-17T18:51:26.277Z,21.83
2022-08-17T18:54:28.664Z,21.80
2022-08-17T18:56:56.633Z,21.81
2022-08-17T18:59:44.111Z,21.75
2022-08-17T19:05:13.538Z,21.69
2022-08-17T19:07:46.192Z,21.67
2022-08-17T19:10:31.511Z,21.68
2022-08-17T19:13:01.224Z,21.64
2022-08-17T19:15:33.940Z,21.63
2022-08-17T19:18:22.871Z,21.59
2022-08-17T19:20:59.023Z,21.61
2022-08-17T19:23:28.143Z,21.59
2022-08-17T19:25:58.671Z,21.58
2022-08-17T19:28:25.515Z,21.53
2022-08-17T19:31:03.710Z,21.49
2022-08-17T19:33:31.771Z,21.52
2022-08-17T19:36:06.832Z,21.46
2022-08-17T19:38:51.875Z,21.35
2022-08-17T19:41:30.170Z,21.37
2022-08-17T19:44:09.153Z,21.37
2022-08-17T19:46:50.425Z,21.35
2022-08-17T19:49:53.087Z,21.32
2022-08-17T19:52:31.092Z,21.26
2022-08-17T19:55:05.159Z,21.23
2022-08-17T19:57:46.893Z,21.20
2022-08-17T20:00:18.603Z,21.20
2022-08-17T20:02:55.756Z,21.20
2022-08-17T20:05:29.889Z,21.19
2022-08-17T20:08:09.551Z,21.21
2022-08-17T20:10:54.378Z,21.16
2022-08-17T20:13:44.435Z,21.11
2022-08-17T20:16:17.140Z,21.10
2022-08-17T20:19:01.898Z,21.02
2022-08-17T20:21:37.425Z,21.03
2022-08-17T20:24:21.541Z,20.99
2022-08-17T20:27:01.359Z,20.98
2022-08-17T20:29:37.001Z,21.02
2022-08-17T20:32:04.737Z,21.04
2022-08-17T20:34:38.094Z,21.00
2022-08-17T20:37:25.437Z,20.98
2022-08-17T20:39:52.785Z,20.95
2022-08-17T20:42:22.409Z,20.97
2022-08-17T20:44:57.863Z,20.99
2022-08-17T20:48:00.805Z,20.98
2022-08-17T20:50:44.439Z,20.95
2022-08-17T20:53:15.589Z,20.87
2022-08-17T20:55:52.338Z,20.82
2022-08-17T20:58:23.431Z,20.90
2022-08-17T21:01:13.966Z,20.84
2022-08-17T21:03:51.198Z,20.80
2022-08-17T21:06:21.228Z,20.82
2022-08-17T21:08:54.562Z,20.78
2022-08-17T21:11:57.114Z,20.76
2022-08-17T21:14:41.706Z,20.76
2022-08-17T21:17:42.053Z,20.70
2022-08-17T21:20:32.107Z,20.76
2022-08-17T21:23:18.650Z,20.72
2022-08-17T21:25:58.003Z,20.70
2022-08-17T21:28:34.572Z,20.67
2022-08-17T21:31:09.150Z,20.62
2022-08-17T21:33:40.084Z,20.56
2022-08-17T21:36:11.610Z,20.64
2022-08-17T21:39:03.435Z,20.65
2022-08-17T21:41:34.942Z,20.63
2022-08-17T21:44:12.568Z,20.64
2022-08-17T21:46:46.721Z,20.64
2022-08-17T21:49:17.911Z,20.71
2022-08-17T21:51:50.123Z,20.63
2022-08-17T21:54:34.804Z,20.60
2022-08-17T21:57:07.376Z,20.55
2022-08-17T21:59:37.513Z,20.56
2022-08-17T22:02:07.007Z,20.56
2022-08-17T22:04:39.496Z,20.61
2022-08-17T22:07:10.642Z,20.60
2022-08-17T22:09:44.381Z,20.58
2022-08-17T22:12:19.723Z,20.52
2022-08-17T22:14:56.914Z,20.49
2022-08-17T22:17:26.888Z,20.52
2022-08-17T22:20:01.899Z,20.52
2022-08-17T22:22:58.315Z,20.48
2022-08-17T22:25:26.944Z,20.45
2022-08-17T22:28:05.167Z,20.48
2022-08-17T22:30:40.258Z,20.51
2022-08-17T22:33:37.930Z,20.47
2022-08-17T22:36:32.698Z,20.41
2022-08-17T22:39:02.241Z,20.36
2022-08-17T22:41:49.541Z,20.37
2022-08-17T22:44:24.508Z,20.33
2022-08-17T22:47:00.151Z,20.35
2022-08-17T22:53:36.452Z,20.36
2022-08-17T22:56:22.594Z,20.37
2022-08-17T22:59:12.753Z,20.35
2022-08-17T23:01:40.890Z,20.39
2022-08-17T23:04:32.686Z,20.30
2022-08-17T23:06:59.789Z,20.30
2022-08-17T23:09:26.746Z,20.34
2022-08-17T23:11:58.870Z,20.29
2022-08-17T23:14:31.820Z,20.33
2022-08-17T23:17:02.202Z,20.29
2022-08-17T23:19:31.891Z,20.29
2022-08-17T23:21:59.897Z,20.30
2022-08-17T23:24:29.808Z,20.32
2022-08-17T23:26:58.339Z,20.29
2022-08-17T23:29:29.013Z,20.29
2022-08-17T23:31:58.108Z,20.33
2022-08-17T23:34:25.761Z,20.39
2022-08-17T23:36:53.329Z,20.39
2022-08-17T23:39:27.443Z,20.45
2022-08-17T23:41:55.494Z,20.46
2022-08-17T23:44:25.220Z,20.43
2022-08-17T23:46:52.976Z,20.47
2022-08-17T23:49:20.429Z,20.51
2022-08-17T23:51:48.464Z,20.44
2022-08-17T23:54:33.799Z,20.46
2022-08-17T23:57:01.903Z,20.49
2022-08-17T23:59:29.373Z,20.53
